Time;durP1;ratioP1;P1;durP2;ratioP2;P2;SDS_P1;SDS_P2;PMS_P1;PMS_P2;Temp;Humidity;BMP_temperature;BMP_pressure;BME280_temperature;BME280_humidity;BME280_pressure;Samples;Min_cycle;Max_cycle;Signal;HPM_P1;HPM_P2
2023/03/13 00:01:32;;;;;;;11.02;3.05;;;13.90;64.10;;;;;;5009960;28;20125;-49
2023/03/13 00:04:03;;;;;;;15.00;3.38;;;14.00;64.10;;;;;;5017996;28;20525;-47
2023/03/13 00:06:33;;;;;;;11.15;3.13;;;14.00;64.10;;;;;;5007236;28;20050;-49
2023/03/13 00:09:00;;;;;;;7.78;2.28;;;14.00;64.30;;;;;;5021224;28;20690;-47
2023/03/13 00:11:28;;;;;;;12.35;2.80;;;14.00;64.30;;;;;;5016999;28;20552;-48
2023/03/13 00:14:03;;;;;;;10.80;3.20;;;14.00;64.50;;;;;;5011919;28;20069;-48
2023/03/13 00:16:30;;;;;;;11.55;2.60;;;14.10;64.90;;;;;;5019421;28;20497;-48
2023/03/13 00:19:04;;;;;;;8.00;2.72;;;14.10;65.10;;;;;;5029594;28;20041;-51
2023/03/13 00:21:32;;;;;;;11.20;4.15;;;14.10;65.30;;;;;;5013328;28;20029;-48
2023/03/13 00:24:01;;;;;;;10.90;3.42;;;14.10;65.40;;;;;;5025053;28;20049;-49
2023/03/13 00:26:29;;;;;;;12.73;3.38;;;14.10;65.60;;;;;;5029530;28;20038;-47
2023/03/13 00:29:04;;;;;;;12.18;3.25;;;14.10;65.70;;;;;;5011776;28;20041;-48
2023/03/13 00:31:35;;;;;;;12.65;2.83;;;14.10;65.90;;;;;;4993432;28;20442;-51
2023/03/13 00:34:04;;;;;;;11.35;2.88;;;14.10;66.00;;;;;;5018940;28;20033;-47
2023/03/13 00:36:36;;;;;;;13.15;3.15;;;14.10;66.10;;;;;;5000020;28;20120;-45
2023/03/13 00:39:05;;;;;;;10.70;3.05;;;14.10;66.30;;;;;;5005247;28;20041;-49
2023/03/13 00:41:36;;;;;;;7.80;2.55;;;14.10;66.40;;;;;;5012023;28;20079;-48
2023/03/13 00:44:07;;;;;;;10.23;3.10;;;14.10;66.40;;;;;;5011280;28;20588;-48
2023/03/13 00:46:35;;;;;;;8.52;2.58;;;14.10;66.40;;;;;;4997575;28;20038;-46
2023/03/13 00:49:04;;;;;;;8.15;2.97;;;14.10;66.50;;;;;;5009518;28;20083;-50
2023/03/13 00:51:37;;;;;;;7.38;2.78;;;14.10;66.50;;;;;;5005804;28;20517;-51
2023/03/13 00:54:11;;;;;;;10.52;2.88;;;14.10;66.50;;;;;;5008784;28;20464;-50
2023/03/13 00:56:38;;;;;;;8.77;2.70;;;14.10;66.50;;;;;;5011423;28;20049;-48
2023/03/13 00:59:05;;;;;;;8.18;2.72;;;14.10;66.50;;;;;;5029071;28;20069;-48
2023/03/13 01:01:34;;;;;;;7.43;3.20;;;14.10;66.60;;;;;;5013477;28;20518;-49
2023/03/13 01:04:10;;;;;;;7.30;2.65;;;14.20;66.70;;;;;;4997377;28;20042;-46
2023/03/13 01:06:41;;;;;;;7.85;2.70;;;14.20;67.00;;;;;;5011304;28;20046;-48
2023/03/13 01:09:10;;;;;;;8.48;2.97;;;14.20;67.10;;;;;;5002952;28;20047;-51
2023/03/13 01:11:39;;;;;;;11.52;2.80;;;14.20;67.30;;;;;;5012503;28;20071;-47
2023/03/13 01:14:11;;;;;;;5.60;1.88;;;14.20;67.60;;;;;;5015314;28;20091;-47
2023/03/13 01:16:41;;;;;;;4.90;2.50;;;14.20;68.00;;;;;;5028090;28;20065;-47
2023/03/13 01:19:14;;;;;;;7.50;2.10;;;14.20;68.50;;;;;;5027452;28;20645;-47
2023/03/13 01:21:45;;;;;;;7.32;2.63;;;14.20;68.90;;;;;;4993827;28;20038;-47
2023/03/13 01:24:16;;;;;;;7.93;2.63;;;14.10;68.80;;;;;;5017428;28;20055;-48
2023/03/13 01:26:43;;;;;;;6.95;2.95;;;14.10;69.20;;;;;;5011416;28;20049;-49
2023/03/13 01:29:14;;;;;;;5.95;2.50;;;14.10;69.50;;;;;;5019259;28;20108;-49
2023/03/13 01:31:42;;;;;;;6.10;2.03;;;14.00;69.70;;;;;;5022959;28;20041;-48
2023/03/13 01:34:11;;;;;;;6.97;2.15;;;14.00;70.00;;;;;;5029041;28;20470;-49
2023/03/13 01:36:38;;;;;;;5.35;2.17;;;14.00;70.30;;;;;;5026549;28;20041;-47
2023/03/13 01:39:08;;;;;;;6.53;2.20;;;13.90;70.50;;;;;;5014825;28;20050;-50
2023/03/13 01:41:41;;;;;;;6.85;2.72;;;13.90;70.90;;;;;;5016999;28;20045;-48
2023/03/13 01:44:26;;;;;;;7.72;2.25;;;13.90;71.20;;;;;;5010849;28;20048;-47
2023/03/13 01:46:54;;;;;;;6.57;2.33;;;13.80;72.40;;;;;;5009597;28;20132;-47
2023/03/13 01:49:32;;;;;;;4.80;2.22;;;13.80;71.40;;;;;;5006434;28;20061;-46
2023/03/13 01:52:15;;;;;;;6.10;2.00;;;13.80;72.00;;;;;;4992894;28;20133;-50
2023/03/13 01:55:11;;;;;;;5.35;1.83;;;13.80;72.10;;;;;;5025921;28;20092;-49
2023/03/13 01:57:45;;;;;;;5.38;1.85;;;13.80;72.20;;;;;;5007562;28;20038;-49
2023/03/13 02:00:18;;;;;;;8.65;2.13;;;13.80;72.30;;;;;;4985183;28;20087;-48
2023/03/13 02:02:54;;;;;;;4.57;1.95;;;13.80;72.50;;;;;;5005193;28;20034;-51
2023/03/13 02:05:27;;;;;;;4.00;1.58;;;13.80;72.50;;;;;;5013747;28;20073;-49
2023/03/13 02:08:10;;;;;;;5.30;2.08;;;13.80;72.80;;;;;;5002496;28;20136;-48
2023/03/13 02:10:47;;;;;;;3.67;1.42;;;13.80;72.90;;;;;;5010691;28;20099;-48
2023/03/13 02:13:16;;;;;;;7.22;1.83;;;13.80;72.90;;;;;;5028448;28;20038;-49
2023/03/13 02:15:46;;;;;;;3.90;1.75;;;13.80;72.90;;;;;;4993508;28;20144;-47
2023/03/13 02:18:19;;;;;;;2.85;1.50;;;13.80;73.00;;;;;;4999588;28;20062;-48
2023/03/13 02:20:55;;;;;;;5.13;1.85;;;13.80;73.20;;;;;;5002305;28;20043;-50
2023/03/13 02:23:31;;;;;;;2.55;1.27;;;13.80;73.40;;;;;;4996378;28;20033;-47
2023/03/13 02:26:01;;;;;;;2.97;1.40;;;13.80;73.70;;;;;;5019444;28;20410;-47
2023/03/13 02:28:38;;;;;;;3.67;1.20;;;13.80;73.30;;;;;;4993945;28;20078;-47
2023/03/13 02:31:11;;;;;;;2.50;1.25;;;13.80;73.40;;;;;;4988171;28;20045;-47
2023/03/13 02:33:43;;;;;;;3.63;1.20;;;13.80;73.50;;;;;;5000390;28;20100;-49
2023/03/13 02:36:15;;;;;;;2.53;1.10;;;13.90;74.40;;;;;;5002803;28;20056;-47
2023/03/13 02:38:54;;;;;;;2.60;1.10;;;13.90;73.70;;;;;;4993580;28;20042;-49
2023/03/13 02:41:24;;;;;;;2.50;1.17;;;13.90;73.90;;;;;;4996795;28;20041;-47
2023/03/13 02:43:52;;;;;;;3.63;1.23;;;13.90;73.90;;;;;;4999933;28;20095;-50
2023/03/13 02:46:21;;;;;;;2.53;1.10;;;13.90;73.80;;;;;;5004078;28;20049;-48
2023/03/13 02:48:54;;;;;;;3.22;1.00;;;13.90;73.80;;;;;;5007683;28;20670;-47
2023/03/13 02:51:36;;;;;;;2.42;1.10;;;13.90;73.80;;;;;;5012090;28;20042;-45
2023/03/13 02:54:15;;;;;;;3.67;1.27;;;14.00;74.30;;;;;;5013193;28;20125;-50
2023/03/13 02:56:47;;;;;;;4.88;0.98;;;14.00;73.90;;;;;;5004241;28;20037;-50
2023/03/13 02:59:14;;;;;;;4.03;1.77;;;14.00;73.70;;;;;;5007447;28;20048;-47
2023/03/13 03:01:44;;;;;;;1.67;1.30;;;14.00;73.60;;;;;;4991082;28;20049;-48
2023/03/13 03:04:11;;;;;;;2.33;1.33;;;14.10;73.70;;;;;;5005020;28;20077;-49
2023/03/13 03:06:42;;;;;;;1.80;1.10;;;14.10;73.70;;;;;;4991346;28;20034;-47
2023/03/13 03:09:11;;;;;;;4.00;1.42;;;14.10;73.60;;;;;;5006385;28;20053;-52
2023/03/13 03:11:41;;;;;;;2.42;1.17;;;14.10;73.70;;;;;;5032440;28;20080;-48
2023/03/13 03:14:13;;;;;;;1.85;1.08;;;14.10;73.70;;;;;;5015197;28;20046;-46
2023/03/13 03:16:43;;;;;;;3.55;1.50;;;14.20;73.70;;;;;;5013569;28;20041;-51
2023/03/13 03:19:13;;;;;;;1.23;1.10;;;14.20;73.60;;;;;;4991250;28;20610;-50
2023/03/13 03:21:40;;;;;;;2.88;1.58;;;14.20;73.80;;;;;;4998057;28;20038;-47
2023/03/13 03:24:09;;;;;;;1.90;1.42;;;14.20;73.60;;;;;;5026796;28;20037;-50
2023/03/13 03:26:35;;;;;;;1.42;1.17;;;14.30;73.80;;;;;;5013668;28;20050;-51
2023/03/13 03:29:10;;;;;;;2.70;1.50;;;14.30;73.70;;;;;;5017167;28;20526;-49
2023/03/13 03:31:40;;;;;;;3.38;1.52;;;14.30;73.70;;;;;;5009580;28;20065;-51
2023/03/13 03:34:07;;;;;;;3.28;1.75;;;14.30;73.70;;;;;;5021111;28;20084;-48
2023/03/13 03:36:41;;;;;;;1.15;0.95;;;14.30;73.70;;;;;;5028204;28;20390;-47
2023/03/13 03:39:07;;;;;;;1.35;1.25;;;14.30;73.80;;;;;;5010407;28;20120;-51
2023/03/13 03:41:36;;;;;;;1.40;1.30;;;14.40;73.80;;;;;;5030233;28;20583;-51
2023/03/13 03:44:04;;;;;;;2.28;1.25;;;14.40;73.90;;;;;;5013832;28;20037;-46
2023/03/13 03:46:51;;;;;;;2.20;1.30;;;14.40;73.90;;;;;;5025811;28;20107;-49
2023/03/13 03:49:21;;;;;;;1.42;1.15;;;14.40;73.90;;;;;;5011987;28;20065;-49
2023/03/13 03:51:49;;;;;;;1.63;1.13;;;14.40;73.90;;;;;;5010661;28;20049;-49
2023/03/13 03:54:24;;;;;;;1.55;1.45;;;14.50;74.00;;;;;;4999403;28;20084;-49
2023/03/13 03:56:56;;;;;;;1.10;1.10;;;14.40;73.90;;;;;;5029126;28;20042;-46
2023/03/13 03:59:24;;;;;;;3.47;1.30;;;14.50;74.00;;;;;;5012486;28;20069;-47
2023/03/13 04:01:58;;;;;;;;;;;14.50;74.00;;;;;;5010016;28;20503;-50
2023/03/13 04:04:30;;;;;;;2.08;1.00;;;14.60;74.30;;;;;;4999160;28;19926;-48
2023/03/13 04:07:05;;;;;;;1.20;1.10;;;14.60;73.50;;;;;;4991781;28;20050;-49
2023/03/13 04:09:34;;;;;;;1.55;1.42;;;14.60;73.60;;;;;;5012160;28;20080;-49
2023/03/13 04:12:05;;;;;;;1.63;1.35;;;14.60;73.70;;;;;;4994128;28;20043;-51
2023/03/13 04:14:38;;;;;;;2.05;1.40;;;14.60;73.80;;;;;;4999293;28;20530;-48
2023/03/13 04:17:08;;;;;;;2.65;1.23;;;14.70;73.90;;;;;;5010243;28;20438;-51
2023/03/13 04:19:40;;;;;;;1.40;1.30;;;14.70;73.90;;;;;;5011260;28;20605;-51
2023/03/13 04:22:07;;;;;;;2.85;1.33;;;14.70;73.90;;;;;;5011224;28;20052;-49
2023/03/13 04:24:40;;;;;;;1.38;1.27;;;14.70;74.00;;;;;;5002668;28;20052;-47
2023/03/13 04:27:09;;;;;;;2.80;1.33;;;14.70;74.10;;;;;;5010045;28;20111;-49
2023/03/13 04:29:37;;;;;;;1.77;1.63;;;14.80;74.10;;;;;;5002400;28;20041;-49
2023/03/13 04:32:37;;;;;;;0.90;0.90;;;14.80;74.00;;;;;;5003655;28;20046;-51
2023/03/13 04:35:31;;;;;;;1.30;1.08;;;14.80;73.90;;;;;;5022958;28;20048;-46
2023/03/13 04:38:19;;;;;;;2.63;1.40;;;14.80;73.90;;;;;;5000467;28;20081;-47
2023/03/13 04:41:05;;;;;;;2.58;1.58;;;14.80;73.90;;;;;;5025914;28;20437;-49
2023/03/13 04:43:51;;;;;;;2.45;1.67;;;14.90;73.90;;;;;;5014279;28;20608;-49
2023/03/13 04:46:43;;;;;;;2.28;1.23;;;14.90;73.90;;;;;;5023785;28;20456;-49
2023/03/13 04:49:13;;;;;;;2.40;1.30;;;14.90;74.00;;;;;;5015084;28;20061;-47
2023/03/13 04:52:07;;;;;;;1.92;1.58;;;14.90;74.00;;;;;;4987540;28;20096;-49
2023/03/13 04:54:56;;;;;;;1.35;1.25;;;14.90;74.10;;;;;;4983030;28;20136;-51
2023/03/13 04:57:43;;;;;;;2.88;1.80;;;15.00;74.00;;;;;;5005516;28;20580;-51
2023/03/13 05:00:45;;;;;;;2.17;1.50;;;15.00;74.00;;;;;;4957784;28;20045;-51
2023/03/13 05:03:33;;;;;;;1.55;1.20;;;15.00;74.00;;;;;;5012703;28;20056;-51
2023/03/13 05:06:11;;;;;;;1.42;1.05;;;15.10;74.10;;;;;;5008861;28;20103;-50
2023/03/13 05:09:01;;;;;;;2.42;1.60;;;15.10;74.00;;;;;;5006125;28;20132;-51
2023/03/13 05:11:59;;;;;;;1.40;1.30;;;15.10;74.00;;;;;;4940702;28;20134;-50
2023/03/13 05:14:58;;;;;;;2.08;1.48;;;15.00;73.80;;;;;;4984899;28;20131;-48
2023/03/13 05:17:47;;;;;;;0.95;0.88;;;15.20;73.90;;;;;;5008855;28;20034;-51
2023/03/13 05:20:33;;;;;;;1.80;1.70;;;15.20;73.90;;;;;;5005136;28;20057;-48
2023/03/13 05:23:23;;;;;;;2.45;1.95;;;15.20;73.80;;;;;;5006331;28;20044;-51
2023/03/13 05:26:01;;;;;;;2.80;1.77;;;15.30;73.90;;;;;;4993804;28;20709;-47
2023/03/13 05:28:39;;;;;;;1.40;1.13;;;15.30;73.90;;;;;;5013466;28;20563;-50
2023/03/13 05:31:32;;;;;;;1.40;1.30;;;15.30;73.80;;;;;;4996799;28;20138;-50
2023/03/13 05:34:09;;;;;;;1.70;1.42;;;15.40;73.70;;;;;;5003001;28;20051;-47
2023/03/13 05:37:08;;;;;;;2.97;1.50;;;15.30;73.60;;;;;;5007622;28;20107;-50
2023/03/13 05:40:15;;;;;;;2.60;1.63;;;15.40;73.50;;;;;;4964930;28;20722;-47
2023/03/13 05:43:13;;;;;;;1.63;1.52;;;15.40;73.40;;;;;;4945934;28;20141;-50
2023/03/13 05:46:02;;;;;;;1.40;1.30;;;15.40;73.30;;;;;;5004779;28;20167;-45
2023/03/13 05:48:39;;;;;;;3.33;1.38;;;15.50;73.30;;;;;;4992353;28;20049;-47
2023/03/13 05:51:21;;;;;;;2.08;1.52;;;15.50;73.20;;;;;;4990869;28;20077;-50
2023/03/13 05:54:13;;;;;;;1.55;1.38;;;15.50;73.10;;;;;;5011222;28;20141;-47
2023/03/13 05:57:17;;;;;;;1.98;1.30;;;15.60;73.00;;;;;;4892061;28;3445101;-48
2023/03/13 06:00:10;;;;;;;1.92;1.15;;;15.60;72.90;;;;;;5014233;28;20040;-47
2023/03/13 06:02:50;;;;;;;2.00;1.40;;;15.60;72.80;;;;;;4998956;28;20068;-54
2023/03/13 06:05:23;;;;;;;2.05;1.40;;;15.60;72.70;;;;;;5013226;28;20441;-52
2023/03/13 06:07:50;;;;;;;2.70;1.55;;;15.70;72.70;;;;;;5011691;28;20042;-47
2023/03/13 06:10:17;;;;;;;1.88;1.50;;;15.70;72.60;;;;;;5027722;28;20073;-47
2023/03/13 06:12:52;;;;;;;4.60;1.77;;;15.70;72.60;;;;;;4998390;28;20050;-47
2023/03/13 06:15:25;;;;;;;2.30;1.60;;;15.70;72.60;;;;;;5025612;28;20037;-49
2023/03/13 06:18:00;;;;;;;2.88;1.40;;;15.80;72.30;;;;;;5012147;28;20037;-51
2023/03/13 06:20:38;;;;;;;2.60;1.63;;;15.70;72.20;;;;;;5022124;28;20120;-48
2023/03/13 06:23:12;;;;;;;2.78;1.38;;;15.80;72.30;;;;;;5003988;28;20140;-51
2023/03/13 06:25:40;;;;;;;2.55;1.55;;;15.80;72.30;;;;;;5007785;28;20088;-47
2023/03/13 06:28:10;;;;;;;1.73;1.35;;;15.80;72.10;;;;;;5023757;28;20041;-48
2023/03/13 06:30:46;;;;;;;1.33;1.20;;;15.80;72.00;;;;;;5005696;28;20073;-49
2023/03/13 06:33:14;;;;;;;1.75;1.45;;;15.90;72.00;;;;;;5024457;28;20414;-48
2023/03/13 06:35:45;;;;;;;2.60;1.83;;;15.90;71.80;;;;;;5023075;28;20065;-49
2023/03/13 06:38:26;;;;;;;1.95;1.63;;;15.90;71.70;;;;;;5012221;28;20118;-47
2023/03/13 06:40:55;;;;;;;2.42;1.77;;;15.90;71.50;;;;;;5018792;28;20513;-50
2023/03/13 06:43:27;;;;;;;2.33;1.60;;;15.90;71.40;;;;;;5022173;28;20060;-51
2023/03/13 06:45:56;;;;;;;1.77;1.23;;;16.00;71.40;;;;;;5014554;28;20048;-51
2023/03/13 06:48:26;;;;;;;3.95;1.60;;;16.00;71.20;;;;;;5028134;28;20087;-49
2023/03/13 06:50:55;;;;;;;2.88;1.38;;;16.00;71.10;;;;;;5021993;28;20048;-49
2023/03/13 06:53:22;;;;;;;2.92;1.55;;;16.00;71.00;;;;;;5014694;28;20042;-49
2023/03/13 06:55:52;;;;;;;3.58;1.75;;;16.10;70.80;;;;;;5009397;28;20052;-52
2023/03/13 06:58:20;;;;;;;3.28;1.90;;;16.10;70.70;;;;;;5012636;28;20053;-51
2023/03/13 07:01:06;;;;;;;2.88;1.90;;;16.10;70.60;;;;;;5023093;28;20546;-48
2023/03/13 07:03:34;;;;;;;2.25;1.63;;;16.10;70.40;;;;;;5002058;28;20076;-50
2023/03/13 07:06:04;;;;;;;2.85;1.42;;;16.20;70.30;;;;;;5009456;28;20049;-49
2023/03/13 07:08:34;;;;;;;3.13;1.60;;;16.20;70.10;;;;;;5011870;28;20413;-51
2023/03/13 07:11:04;;;;;;;3.08;1.67;;;16.20;70.00;;;;;;5013988;28;20049;-49
2023/03/13 07:13:32;;;;;;;3.50;1.70;;;16.20;69.80;;;;;;5006920;28;20034;-49
2023/03/13 07:16:06;;;;;;;5.40;2.28;;;16.30;69.80;;;;;;5009987;28;20111;-49
2023/03/13 07:18:37;;;;;;;1.88;1.63;;;16.30;70.30;;;;;;5011697;28;20043;-46
2023/03/13 07:21:08;;;;;;;2.83;2.00;;;16.30;69.50;;;;;;5018600;28;20050;-48
2023/03/13 07:23:38;;;;;;;4.32;1.73;;;16.30;69.40;;;;;;5016439;28;20568;-47
2023/03/13 07:26:10;;;;;;;2.42;1.40;;;16.40;69.20;;;;;;5032288;28;20052;-48
2023/03/13 07:28:42;;;;;;;3.22;1.80;;;16.40;69.00;;;;;;5026085;28;20101;-48
2023/03/13 07:31:20;;;;;;;2.20;1.65;;;16.40;68.90;;;;;;5012077;28;20053;-47
2023/03/13 07:33:53;;;;;;;4.13;1.85;;;16.40;68.60;;;;;;5031477;28;20056;-50
2023/03/13 07:36:21;;;;;;;2.75;1.85;;;16.50;68.50;;;;;;5031785;28;20037;-50
2023/03/13 07:38:48;;;;;;;2.60;1.85;;;16.50;68.20;;;;;;5019587;28;20050;-51
2023/03/13 07:41:17;;;;;;;2.28;1.83;;;16.50;68.10;;;;;;5025858;28;20406;-51
2023/03/13 07:43:46;;;;;;;6.25;1.88;;;16.50;68.00;;;;;;5030877;28;20056;-50
2023/03/13 07:46:22;;;;;;;5.18;1.77;;;16.50;67.80;;;;;;5023682;28;20041;-51
2023/03/13 07:48:54;;;;;;;2.55;1.58;;;16.50;67.70;;;;;;5019064;28;20045;-49
2023/03/13 07:51:26;;;;;;;3.50;2.13;;;16.60;67.70;;;;;;5007869;28;20041;-51
2023/03/13 07:54:08;;;;;;;4.63;2.00;;;16.60;67.60;;;;;;5010468;28;20045;-47
2023/03/13 07:56:41;;;;;;;13.93;3.03;;;16.60;67.40;;;;;;5014461;28;20878;-52
2023/03/13 07:59:09;;;;;;;5.68;1.90;;;16.60;67.20;;;;;;5011488;28;20053;-47
2023/03/13 08:01:40;;;;;;;4.63;2.03;;;16.60;67.30;;;;;;5011892;28;20041;-47
2023/03/13 08:04:11;;;;;;;4.25;1.73;;;16.70;67.20;;;;;;5009910;28;20053;-49
2023/03/13 08:06:41;;;;;;;3.90;1.98;;;16.70;67.10;;;;;;5018218;28;20045;-46
2023/03/13 08:09:13;;;;;;;5.18;1.90;;;16.70;67.00;;;;;;5027854;28;20041;-47
2023/03/13 08:11:43;;;;;;;;;;;16.70;67.10;;;;;;5023330;28;20095;-49
2023/03/13 08:14:09;;;;;;;3.45;2.45;;;16.80;67.30;;;;;;5012462;28;19921;-48
2023/03/13 08:16:41;;;;;;;3.03;1.77;;;16.80;67.00;;;;;;5015442;28;20402;-51
2023/03/13 08:19:09;;;;;;;2.78;2.35;;;16.90;66.90;;;;;;5027440;28;20042;-48
2023/03/13 08:21:38;;;;;;;7.78;1.92;;;16.90;66.90;;;;;;4996152;28;20121;-47
2023/03/13 08:24:13;;;;;;;4.55;2.38;;;16.90;66.80;;;;;;5020798;28;20050;-48
2023/03/13 08:26:41;;;;;;;3.83;2.55;;;16.90;66.70;;;;;;5012284;28;20044;-52
2023/03/13 08:29:15;;;;;;;3.85;2.03;;;17.00;66.70;;;;;;5017506;28;20053;-49
2023/03/13 08:31:51;;;;;;;3.67;2.53;;;17.00;66.50;;;;;;5005544;28;20056;-51
2023/03/13 08:34:20;;;;;;;4.70;1.85;;;17.00;66.50;;;;;;5008972;28;20076;-51
2023/03/13 08:36:47;;;;;;;3.15;1.90;;;17.00;66.40;;;;;;5015349;28;20030;-50
2023/03/13 08:39:21;;;;;;;5.25;2.85;;;17.00;66.40;;;;;;5008953;28;20046;-48
2023/03/13 08:41:50;;;;;;;4.68;2.90;;;17.00;66.40;;;;;;5008864;28;20041;-52
2023/03/13 08:44:21;;;;;;;4.15;2.10;;;17.00;66.60;;;;;;5018191;28;20057;-51
2023/03/13 08:46:51;;;;;;;4.32;2.35;;;17.00;66.90;;;;;;5024940;28;20046;-50
2023/03/13 08:49:22;;;;;;;7.85;2.15;;;17.10;66.80;;;;;;5004028;28;20050;-52
2023/03/13 08:51:49;;;;;;;3.67;2.08;;;17.10;66.70;;;;;;5003389;28;20502;-50
2023/03/13 08:54:36;;;;;;;4.28;1.70;;;17.20;66.60;;;;;;5018792;28;20047;-51
2023/03/13 08:57:09;;;;;;;4.45;1.95;;;17.20;66.60;;;;;;5029334;28;20103;-51
2023/03/13 08:59:40;;;;;;;2.63;1.70;;;17.30;66.50;;;;;;5016262;28;20041;-48
2023/03/13 09:02:09;;;;;;;2.90;1.80;;;17.40;66.50;;;;;;5019535;28;20128;-51
2023/03/13 09:04:41;;;;;;;5.20;2.33;;;17.40;66.40;;;;;;5019945;28;20065;-47
2023/03/13 09:07:10;;;;;;;3.42;2.10;;;17.40;66.40;;;;;;5021999;28;20051;-50
2023/03/13 09:09:37;;;;;;;3.45;1.92;;;17.40;66.10;;;;;;5020954;28;20602;-49
2023/03/13 09:12:04;;;;;;;3.45;2.42;;;17.40;66.30;;;;;;5029086;28;20528;-47
2023/03/13 09:14:47;;;;;;;3.92;2.13;;;17.40;66.10;;;;;;5010780;28;20534;-47
2023/03/13 09:17:16;;;;;;;3.97;2.10;;;17.40;66.10;;;;;;5020001;28;20374;-51
2023/03/13 09:19:44;;;;;;;3.42;2.05;;;17.50;66.30;;;;;;5013840;28;20034;-51
2023/03/13 09:22:29;;;;;;;3.38;2.40;;;17.50;66.40;;;;;;5006003;28;20530;-48
2023/03/13 09:25:01;;;;;;;4.63;2.53;;;17.50;66.20;;;;;;5024810;28;20072;-49
2023/03/13 09:27:33;;;;;;;2.45;1.92;;;17.50;66.30;;;;;;5030364;28;20099;-51
2023/03/13 09:30:02;;;;;;;2.90;1.83;;;17.50;66.30;;;;;;5029091;28;20063;-50
2023/03/13 09:32:31;;;;;;;4.63;2.47;;;17.60;66.30;;;;;;5016274;28;20168;-52
2023/03/13 09:35:03;;;;;;;3.20;2.17;;;17.60;66.40;;;;;;5029655;28;20039;-50
2023/03/13 09:37:34;;;;;;;1.88;1.75;;;17.60;66.60;;;;;;5029393;28;20045;-48
2023/03/13 09:40:07;;;;;;;4.68;2.38;;;17.60;67.00;;;;;;5026381;28;20120;-51
2023/03/13 09:42:47;;;;;;;3.90;1.67;;;17.70;67.00;;;;;;5009788;28;20510;-50
2023/03/13 09:45:26;;;;;;;3.90;1.77;;;17.80;66.50;;;;;;5029972;28;20444;-48
2023/03/13 09:48:01;;;;;;;3.42;1.95;;;17.90;66.30;;;;;;5024098;28;20051;-51
2023/03/13 09:50:38;;;;;;;2.75;1.48;;;18.10;66.70;;;;;;5009154;28;20041;-48
2023/03/13 09:53:14;;;;;;;2.97;1.65;;;18.20;66.10;;;;;;5011678;28;20046;-52
2023/03/13 09:55:48;;;;;;;6.00;2.00;;;18.30;65.50;;;;;;5015744;28;20045;-48
2023/03/13 09:58:21;;;;;;;3.00;1.73;;;18.40;65.60;;;;;;5019669;28;20038;-50
2023/03/13 10:01:09;;;;;;;2.15;1.40;;;18.50;65.10;;;;;;5004258;28;20053;-48
2023/03/13 10:03:45;;;;;;;2.70;1.60;;;18.60;64.30;;;;;;5012473;28;20407;-50
2023/03/13 10:06:24;;;;;;;2.60;1.30;;;18.70;64.20;;;;;;5004762;28;20045;-49
2023/03/13 10:08:55;;;;;;;3.35;1.42;;;18.80;64.00;;;;;;5022515;28;20124;-50
2023/03/13 10:11:46;;;;;;;2.43;1.70;;;18.90;63.60;;;;;;5002248;28;20054;-51
2023/03/13 10:14:27;;;;;;;1.80;1.33;;;18.90;63.40;;;;;;5003430;28;20049;-52
2023/03/13 10:17:09;;;;;;;3.55;1.60;;;19.00;63.00;;;;;;5010684;28;20117;-52
2023/03/13 10:19:41;;;;;;;1.30;1.20;;;19.00;63.50;;;;;;5024036;28;20046;-47
2023/03/13 10:22:25;;;;;;;2.75;1.10;;;19.00;63.70;;;;;;5013273;28;20120;-51
2023/03/13 10:24:57;;;;;;;3.63;1.40;;;19.10;62.70;;;;;;5019487;28;20414;-52
2023/03/13 10:27:26;;;;;;;2.83;1.13;;;19.10;62.80;;;;;;5033407;28;20120;-50
2023/03/13 10:29:59;;;;;;;2.78;1.48;;;19.20;63.30;;;;;;5029653;28;20048;-48
2023/03/13 10:32:31;;;;;;;1.33;1.02;;;19.20;62.40;;;;;;5018571;28;20509;-51
2023/03/13 10:35:02;;;;;;;3.28;1.50;;;19.20;62.50;;;;;;5027683;28;20044;-49
2023/03/13 10:37:39;;;;;;;1.60;1.38;;;19.20;62.20;;;;;;5027506;28;20049;-52
2023/03/13 10:40:23;;;;;;;1.40;1.30;;;19.30;62.10;;;;;;5012973;28;20042;-52
2023/03/13 10:42:52;;;;;;;3.67;1.50;;;19.30;62.10;;;;;;5026834;28;20037;-51
2023/03/13 10:45:24;;;;;;;3.58;1.50;;;19.30;62.50;;;;;;5012053;28;20053;-51
2023/03/13 10:47:57;;;;;;;3.70;1.20;;;19.30;62.20;;;;;;5009285;28;20095;-51
2023/03/13 10:50:26;;;;;;;1.10;0.98;;;19.40;62.00;;;;;;5028950;28;20049;-50
2023/03/13 10:53:34;;;;;;;4.53;1.50;;;19.40;62.00;;;;;;5008482;28;20104;-50
2023/03/13 10:56:11;;;;;;;1.30;1.00;;;19.50;61.70;;;;;;5017090;28;20060;-50
2023/03/13 10:58:44;;;;;;;1.65;1.25;;;19.50;61.30;;;;;;5023571;28;20049;-49
2023/03/13 11:01:24;;;;;;;2.50;1.70;;;19.50;61.80;;;;;;5024448;28;20433;-50
2023/03/13 11:03:56;;;;;;;1.20;1.00;;;19.60;61.30;;;;;;5019340;28;20091;-50
2023/03/13 11:06:22;;;;;;;2.05;1.00;;;19.70;61.10;;;;;;5008890;28;20038;-51
2023/03/13 11:08:56;;;;;;;1.25;1.13;;;19.70;61.00;;;;;;5014077;28;20049;-52
2023/03/13 11:11:29;;;;;;;1.00;0.60;;;19.80;61.10;;;;;;5032212;28;20069;-50
2023/03/13 11:14:15;;;;;;;3.60;0.90;;;19.80;60.60;;;;;;5032580;28;20041;-49
2023/03/13 11:17:13;;;;;;;1.33;0.80;;;19.90;58.90;;;;;;5007492;28;20564;-46
2023/03/13 11:19:48;;;;;;;0.98;0.80;;;20.00;59.60;;;;;;5008506;28;20466;-51
2023/03/13 11:22:23;;;;;;;1.27;0.75;;;20.00;59.00;;;;;;5015106;28;20120;-49
2023/03/13 11:25:02;;;;;;;1.05;1.02;;;20.00;58.10;;;;;;5013969;28;20045;-51
2023/03/13 11:27:38;;;;;;;1.40;1.10;;;20.00;57.70;;;;;;5012631;28;20569;-51
2023/03/13 11:30:26;;;;;;;2.72;0.80;;;20.00;57.40;;;;;;5015701;28;20473;-48
2023/03/13 11:33:03;;;;;;;1.70;0.77;;;20.00;57.50;;;;;;5018615;28;20049;-48
2023/03/13 11:35:45;;;;;;;0.80;0.77;;;20.00;57.30;;;;;;5031994;28;20111;-48
2023/03/13 11:38:33;;;;;;;1.17;0.57;;;20.10;57.40;;;;;;5032324;28;20057;-48
2023/03/13 11:41:15;;;;;;;1.00;0.50;;;20.00;57.50;;;;;;5007383;28;20133;-49
2023/03/13 11:43:58;;;;;;;0.70;0.50;;;20.10;57.70;;;;;;5025255;28;20049;-47
2023/03/13 11:46:47;;;;;;;1.38;0.63;;;20.10;57.20;;;;;;5032076;28;20499;-50
2023/03/13 11:49:28;;;;;;;0.90;0.63;;;20.10;55.70;;;;;;5016225;28;20049;-50
2023/03/13 11:52:23;;;;;;;1.98;0.60;;;20.10;56.50;;;;;;5005342;28;20060;-49
2023/03/13 11:55:17;;;;;;;1.38;0.45;;;20.10;56.60;;;;;;5020288;28;20688;-51
2023/03/13 11:58:10;;;;;;;1.48;0.70;;;20.10;56.20;;;;;;5031821;28;20034;-48
2023/03/13 12:01:02;;;;;;;0.50;0.50;;;20.10;55.90;;;;;;5013163;28;20046;-54
2023/03/13 12:04:00;;;;;;;2.63;1.30;;;20.10;56.10;;;;;;5031397;28;20065;-49
2023/03/13 12:06:45;;;;;;;1.77;0.70;;;20.10;55.90;;;;;;5012128;28;20045;-50
2023/03/13 12:09:18;;;;;;;1.75;1.45;;;20.10;56.10;;;;;;5031363;28;20414;-51
2023/03/13 12:12:11;;;;;;;1.33;0.80;;;20.20;56.70;;;;;;5013684;28;20514;-48
2023/03/13 12:14:50;;;;;;;0.98;0.68;;;20.20;56.50;;;;;;5013098;28;20042;-49
2023/03/13 12:17:34;;;;;;;0.50;0.50;;;20.20;56.90;;;;;;5023754;28;20037;-48
2023/03/13 12:20:10;;;;;;;1.05;0.70;;;20.30;56.40;;;;;;5030423;28;20056;-52
2023/03/13 12:23:15;;;;;;;1.13;0.57;;;20.30;56.70;;;;;;5015872;28;20112;-48
2023/03/13 12:25:59;;;;;;;0.52;0.50;;;20.30;56.10;;;;;;5030995;28;20599;-51
2023/03/13 12:28:25;;;;;;;;;;;20.40;56.20;;;;;;5029793;28;20057;-51
2023/03/13 12:31:10;;;;;;;2.58;0.60;;;20.40;56.90;;;;;;5009347;28;19975;-51
2023/03/13 12:34:08;;;;;;;1.40;0.47;;;20.50;55.90;;;;;;5028819;28;20057;-51
2023/03/13 12:36:41;;;;;;;0.50;0.50;;;20.50;55.20;;;;;;5022796;28;20034;-52
2023/03/13 12:39:27;;;;;;;1.02;0.52;;;20.50;56.20;;;;;;5014564;28;20052;-49
2023/03/13 12:42:30;;;;;;;1.40;0.70;;;20.50;55.20;;;;;;5016909;28;20076;-49
2023/03/13 12:44:59;;;;;;;1.00;0.65;;;20.50;55.40;;;;;;5029714;28;20053;-51
2023/03/13 12:47:39;;;;;;;0.88;0.70;;;20.60;55.60;;;;;;5011300;28;20454;-49
2023/03/13 12:50:45;;;;;;;1.38;0.60;;;20.50;55.50;;;;;;5030069;28;20050;-48
2023/03/13 12:53:39;;;;;;;0.70;0.43;;;20.50;54.80;;;;;;5019517;28;20056;-50
2023/03/13 12:56:34;;;;;;;0.52;0.52;;;20.60;54.80;;;;;;5023316;28;20048;-48
2023/03/13 12:59:08;;;;;;;0.68;0.60;;;20.60;54.80;;;;;;5002082;28;20413;-49
2023/03/13 13:01:44;;;;;;;2.78;0.90;;;20.60;54.90;;;;;;5001582;28;20111;-49
2023/03/13 13:04:25;;;;;;;1.85;0.60;;;20.60;54.60;;;;;;5008747;28;20492;-46
2023/03/13 13:07:18;;;;;;;0.60;0.60;;;20.60;55.10;;;;;;5015737;28;20505;-48
2023/03/13 13:10:08;;;;;;;0.85;0.60;;;20.60;55.20;;;;;;5029502;28;20044;-47
2023/03/13 13:12:39;;;;;;;0.88;0.60;;;20.70;55.10;;;;;;5030120;28;20033;-50
2023/03/13 13:15:14;;;;;;;0.50;0.50;;;20.80;55.40;;;;;;5012902;28;20042;-49
2023/03/13 13:17:54;;;;;;;0.50;0.50;;;20.90;55.20;;;;;;5028933;28;20041;-52
2023/03/13 13:20:39;;;;;;;1.27;0.68;;;21.00;54.80;;;;;;5027017;28;20045;-48
2023/03/13 13:23:36;;;;;;;0.75;0.60;;;21.00;54.40;;;;;;5022437;28;20049;-50
2023/03/13 13:29:20;;;;;;;1.20;0.68;;;21.00;54.20;;;;;;5018924;28;20047;-49
2023/03/13 13:31:49;;;;;;;0.90;0.57;;;21.00;54.50;;;;;;5027711;28;20041;-49
2023/03/13 13:34:27;;;;;;;0.95;0.73;;;21.00;54.30;;;;;;5030600;28;20045;-48
2023/03/13 13:36:57;;;;;;;1.30;0.60;;;20.90;53.90;;;;;;5014205;28;20046;-47